Pagina principală
METAR-TAF:

METAR-TAF

Aeroporturi :

Albion Municipal Airport

Albion, Nebraska, Statele Unite ale Americii

Latitudine: 41-43-42N, longitudine: 098-03-20W, elevație: 551 m

Observații meteo curente

Raportul a fost făcut în urmă cu 24 de minute, la 14:35 UTC
Vânt 13 kt de la Sud/Sud-est cu rafale de până la 17 kt
Temperatură 20°C
Umiditate 100%
Presiune 1012 hPa
Vizibilitate: 16.1 km
Total acoperit la o înălțime de 900 picior

METAR: KBVN 151435Z AUTO 16013G17KT 10SM OVC009 20/20 A2987 RMK AO2 T02030196

Ora: 09:59 (14:59 UTC)


TAF: lipsă

Observații și prognoze meteo pentru peste 4.000 de aeroporturi (rapoarte METAR și TAF).

Stațiile disponibile sunt reprezentate pe hartă prin puncte galbene și roșii.

Țineți indicatorul mouse-ului pe punctul dorit pentru a vedea denumirea stației.

Apoi, faceți clic pentru a vedea observațiile și prognozele meteorologice.

Pentru a schimba harta: Pentru mărire, faceți clic pe butoanele verzi cu cruce neagră; pentru micșorare, pe butonul verde cu o liniuță; pentru hărți învecinate, pe săgețile verzi.


METAR-TAF: